Time;durP1;ratioP1;P1;durP2;ratioP2;P2;SDS_P1;SDS_P2;PMS_P1;PMS_P2;Temp;Humidity;BMP_temperature;BMP_pressure;BME280_temperature;BME280_humidity;BME280_pressure;Samples;Min_cycle;Max_cycle;Signal;HPM_P1;HPM_P2
2021/08/06 00:00:30;;;;;;;10.73;9.77;;;20.50;99.90;;;;;;5105771;28;20986;-65
2021/08/06 00:02:58;;;;;;;216.77;173.90;;;20.40;99.90;;;;;;5107066;27;20954;-65
2021/08/06 00:05:25;;;;;;;21.63;19.47;;;20.40;99.90;;;;;;5108608;28;20815;-65
2021/08/06 00:07:52;;;;;;;36.50;32.63;;;20.50;99.90;;;;;;5100166;27;20489;-66
2021/08/06 00:10:19;;;;;;;24.40;21.80;;;20.50;99.90;;;;;;5106159;28;20472;-65
2021/08/06 00:12:46;;;;;;;11.37;9.80;;;20.50;99.90;;;;;;5111106;27;20460;-66
2021/08/06 00:15:13;;;;;;;29.23;25.53;;;20.50;99.90;;;;;;5112172;27;20463;-65
2021/08/06 00:17:40;;;;;;;17.53;15.83;;;20.50;99.90;;;;;;5114019;27;20468;-64
2021/08/06 00:20:10;;;;;;;10.30;9.40;;;20.50;99.90;;;;;;5107464;28;20452;-64
2021/08/06 00:22:36;;;;;;;11.10;9.97;;;20.40;99.90;;;;;;5110381;28;20461;-66
2021/08/06 00:25:04;;;;;;;9.40;8.50;;;20.40;99.90;;;;;;5103516;28;20508;-65
2021/08/06 00:27:32;;;;;;;7.33;6.73;;;20.40;99.90;;;;;;5107736;28;20510;-65
2021/08/06 00:29:59;;;;;;;7.63;6.93;;;20.50;99.90;;;;;;5102689;28;20465;-65
2021/08/06 00:32:26;;;;;;;7.33;6.80;;;20.40;99.90;;;;;;5106999;28;20979;-66
2021/08/06 00:34:53;;;;;;;6.57;6.17;;;20.40;99.90;;;;;;5111594;28;20956;-64
2021/08/06 00:37:22;;;;;;;6.10;5.70;;;20.40;99.90;;;;;;5100071;28;20468;-64
2021/08/06 00:39:49;;;;;;;8.50;7.90;;;20.40;99.90;;;;;;5106549;28;20802;-64
2021/08/06 00:42:16;;;;;;;7.30;6.70;;;20.40;99.90;;;;;;5111253;27;20950;-64
2021/08/06 00:44:43;;;;;;;6.93;6.33;;;20.40;99.90;;;;;;5099816;28;20462;-64
2021/08/06 00:47:10;;;;;;;6.13;5.73;;;20.40;99.90;;;;;;5107295;27;20905;-66
2021/08/06 00:49:37;;;;;;;7.10;6.40;;;20.40;99.90;;;;;;5110073;27;20809;-66
2021/08/06 00:52:04;;;;;;;7.53;6.90;;;20.40;99.90;;;;;;5112297;28;20799;-66
2021/08/06 00:54:33;;;;;;;6.27;5.87;;;20.40;99.90;;;;;;5113531;28;20806;-66
2021/08/06 00:57:00;;;;;;;7.70;7.00;;;20.40;99.90;;;;;;5098286;28;20974;-66
2021/08/06 00:59:27;;;;;;;6.67;6.17;;;20.50;99.90;;;;;;5107445;28;20950;-66
2021/08/06 01:02:05;;;;;;;6.73;6.30;;;20.50;99.90;;;;;;5109595;28;20973;-65
2021/08/06 01:04:50;;;;;;;7.03;6.53;;;20.40;99.90;;;;;;5106360;28;20464;-64
2021/08/06 01:07:24;;;;;;;6.77;6.27;;;20.50;99.90;;;;;;5103058;28;20445;-65
2021/08/06 01:09:57;;;;;;;5.90;5.43;;;20.50;99.90;;;;;;5105004;28;20468;-65
2021/08/06 01:12:28;;;;;;;5.97;5.47;;;20.50;99.90;;;;;;5099547;28;21190;-65
2021/08/06 01:14:59;;;;;;;6.30;5.80;;;20.50;99.90;;;;;;5106942;28;20794;-65
2021/08/06 01:17:29;;;;;;;7.30;6.60;;;20.50;99.90;;;;;;5112520;28;20451;-65
2021/08/06 01:20:05;;;;;;;6.30;5.90;;;20.50;99.90;;;;;;5108080;28;20810;-66
2021/08/06 01:22:40;;;;;;;5.23;4.93;;;20.50;99.90;;;;;;5112581;27;20452;-66
2021/08/06 01:25:13;;;;;;;6.40;5.80;;;20.50;99.90;;;;;;5112986;28;20463;-66
2021/08/06 01:27:46;;;;;;;8.23;7.50;;;20.50;99.90;;;;;;5105627;28;20449;-66
2021/08/06 01:30:14;;;;;;;6.40;6.00;;;20.50;99.90;;;;;;5108353;28;20465;-66
2021/08/06 01:32:42;;;;;;;6.50;6.10;;;20.50;99.90;;;;;;5110595;28;20460;-64
2021/08/06 01:35:11;;;;;;;7.70;6.20;;;20.50;99.90;;;;;;5103312;28;20471;-64
2021/08/06 01:37:38;;;;;;;7.00;6.50;;;20.60;99.90;;;;;;5092455;28;20470;-65
2021/08/06 01:40:08;;;;;;;6.03;5.53;;;20.50;99.90;;;;;;5103030;28;20771;-64
2021/08/06 01:42:42;;;;;;;5.90;5.50;;;20.50;99.90;;;;;;5106589;27;20465;-65
2021/08/06 01:45:16;;;;;;;6.03;5.47;;;20.50;99.90;;;;;;5101069;28;20472;-65
2021/08/06 01:47:48;;;;;;;6.03;5.60;;;20.60;99.90;;;;;;5109295;27;21229;-65
2021/08/06 01:50:18;;;;;;;6.43;6.03;;;20.60;99.90;;;;;;5109744;28;20468;-65
2021/08/06 01:52:49;;;;;;;7.07;6.40;;;20.60;99.90;;;;;;5107279;28;20531;-65
2021/08/06 01:55:18;;;;;;;5.83;5.43;;;20.60;99.90;;;;;;5106671;28;20460;-65
2021/08/06 01:57:47;;;;;;;5.97;5.57;;;20.60;99.90;;;;;;5104501;28;20448;-65
2021/08/06 02:00:16;;;;;;;6.50;6.10;;;20.50;99.90;;;;;;5106763;28;20768;-65
2021/08/06 02:02:43;;;;;;;7.23;6.67;;;20.60;99.90;;;;;;5098838;28;20457;-65
2021/08/06 02:05:11;;;;;;;11.63;10.60;;;20.60;99.90;;;;;;5106198;28;20509;-65
2021/08/06 02:07:38;;;;;;;7.30;6.80;;;20.50;99.90;;;;;;5111667;28;20490;-65
2021/08/06 02:10:06;;;;;;;6.53;6.03;;;20.60;99.90;;;;;;5093182;28;20469;-65
2021/08/06 02:12:34;;;;;;;6.73;6.33;;;20.50;99.90;;;;;;5099361;27;20469;-65
2021/08/06 02:15:01;;;;;;;6.83;6.33;;;20.60;99.90;;;;;;5108679;28;20513;-64
2021/08/06 02:17:31;;;;;;;6.00;5.60;;;20.60;99.90;;;;;;5111912;27;20487;-65
2021/08/06 02:19:59;;;;;;;5.77;5.37;;;20.60;99.90;;;;;;5101381;28;20456;-65
2021/08/06 02:22:27;;;;;;;6.87;6.37;;;20.50;99.90;;;;;;5110510;27;20472;-65
2021/08/06 02:24:55;;;;;;;6.27;5.80;;;20.60;99.90;;;;;;5110595;27;20464;-65
2021/08/06 02:27:23;;;;;;;7.20;6.70;;;20.60;99.90;;;;;;5113486;27;20860;-65
2021/08/06 02:29:51;;;;;;;6.27;5.87;;;20.60;99.90;;;;;;5104887;28;20453;-65
2021/08/06 02:32:18;;;;;;;6.53;6.13;;;20.50;99.90;;;;;;5111400;27;20475;-65
2021/08/06 02:34:47;;;;;;;7.10;6.40;;;20.50;99.90;;;;;;5114870;27;20464;-65
2021/08/06 02:37:14;;;;;;;16.57;14.97;;;20.60;99.90;;;;;;5115020;28;20818;-65
2021/08/06 02:39:41;;;;;;;11.37;10.43;;;20.60;99.90;;;;;;5102120;27;20517;-65
2021/08/06 02:42:08;;;;;;;9.40;8.57;;;20.60;99.90;;;;;;5112750;27;20818;-64
2021/08/06 02:44:36;;;;;;;8.23;7.63;;;20.60;99.90;;;;;;5113562;27;20464;-65
2021/08/06 02:47:04;;;;;;;7.50;6.90;;;20.60;99.90;;;;;;5113868;28;20545;-65
2021/08/06 02:49:33;;;;;;;6.60;6.10;;;20.60;99.90;;;;;;5113354;27;20480;-65
2021/08/06 02:52:02;;;;;;;6.37;5.97;;;20.60;99.90;;;;;;5107730;27;20471;-64
2021/08/06 02:54:29;;;;;;;6.10;5.70;;;20.60;99.90;;;;;;5115487;27;20817;-64
2021/08/06 02:56:56;;;;;;;6.23;5.80;;;20.60;99.90;;;;;;5111621;27;20799;-65
2021/08/06 02:59:23;;;;;;;5.80;5.50;;;20.60;99.90;;;;;;5115329;27;20476;-64
2021/08/06 03:01:50;;;;;;;6.00;5.67;;;20.60;99.90;;;;;;5115042;27;20798;-64
2021/08/06 03:04:17;;;;;;;6.33;5.93;;;20.60;99.90;;;;;;5104058;28;20465;-64
2021/08/06 03:06:44;;;;;;;6.70;6.20;;;20.50;99.90;;;;;;5108240;28;20460;-64
2021/08/06 03:09:12;;;;;;;5.20;4.80;;;20.50;99.90;;;;;;5106891;28;20464;-65
2021/08/06 03:11:39;;;;;;;5.30;4.90;;;20.60;99.90;;;;;;5101462;28;20461;-66
2021/08/06 03:14:07;;;;;;;5.80;5.40;;;20.60;99.90;;;;;;5102441;27;20536;-65
2021/08/06 03:16:33;;;;;;;5.90;5.50;;;20.50;99.90;;;;;;5108052;28;20466;-65
2021/08/06 03:19:01;;;;;;;6.13;5.73;;;20.60;99.90;;;;;;5107926;28;20469;-65
2021/08/06 03:21:27;;;;;;;6.23;5.83;;;20.50;99.90;;;;;;5101202;27;20488;-65
2021/08/06 03:23:54;;;;;;;6.10;5.70;;;20.50;99.90;;;;;;5108970;27;20472;-65
2021/08/06 03:26:23;;;;;;;6.10;5.70;;;20.50;99.90;;;;;;5115028;27;20476;-65
2021/08/06 03:28:50;;;;;;;6.17;5.77;;;20.50;99.90;;;;;;5114489;28;20469;-66
2021/08/06 03:31:17;;;;;;;6.50;6.10;;;20.50;99.90;;;;;;5099946;28;20472;-65
2021/08/06 03:33:44;;;;;;;6.57;6.07;;;20.50;99.90;;;;;;5114631;27;20465;-65
2021/08/06 03:36:12;;;;;;;6.10;5.70;;;20.50;99.90;;;;;;5108452;27;20794;-65
2021/08/06 03:38:39;;;;;;;5.73;5.23;;;20.50;99.90;;;;;;5107624;27;20874;-65
2021/08/06 03:41:06;;;;;;;6.17;5.77;;;20.50;99.90;;;;;;5114681;27;20961;-66
2021/08/06 03:43:34;;;;;;;6.50;6.07;;;20.50;99.90;;;;;;5114242;27;20472;-65
2021/08/06 03:46:01;;;;;;;6.53;6.13;;;20.50;99.90;;;;;;5106328;28;20472;-66
2021/08/06 03:48:28;;;;;;;7.50;7.00;;;20.50;99.90;;;;;;5109398;27;20966;-66
2021/08/06 03:50:55;;;;;;;8.67;8.07;;;20.50;99.90;;;;;;5114204;28;20453;-65
2021/08/06 03:53:22;;;;;;;9.13;8.43;;;20.50;99.90;;;;;;5100991;27;20465;-65
2021/08/06 03:55:49;;;;;;;8.03;7.40;;;20.50;99.90;;;;;;5105216;28;20476;-65
2021/08/06 03:58:16;;;;;;;7.40;6.80;;;20.50;99.90;;;;;;5107491;28;20787;-65
2021/08/06 04:00:44;;;;;;;6.93;6.40;;;20.50;99.90;;;;;;5102926;28;20473;-65
2021/08/06 04:03:11;;;;;;;6.53;6.03;;;20.50;99.90;;;;;;5109752;27;20472;-65
2021/08/06 04:05:38;;;;;;;6.30;5.90;;;20.50;99.90;;;;;;5113834;27;20479;-65
2021/08/06 04:08:06;;;;;;;6.97;6.47;;;20.50;99.90;;;;;;5100601;28;20469;-66
2021/08/06 04:10:34;;;;;;;7.83;7.23;;;20.50;99.90;;;;;;5103743;28;20474;-66
2021/08/06 04:13:01;;;;;;;7.40;6.80;;;20.50;99.90;;;;;;5107523;27;20469;-66
2021/08/06 04:15:28;;;;;;;5.87;5.47;;;20.50;99.90;;;;;;5104680;28;20477;-65
2021/08/06 04:17:57;;;;;;;6.83;6.33;;;20.50;99.90;;;;;;5110036;27;20468;-67
2021/08/06 04:20:24;;;;;;;6.30;5.90;;;20.50;99.90;;;;;;5104616;28;20567;-65
2021/08/06 04:22:51;;;;;;;7.53;6.93;;;20.50;99.90;;;;;;5099948;27;20464;-65
2021/08/06 04:25:19;;;;;;;7.30;6.77;;;20.50;99.90;;;;;;5112769;27;20468;-66
2021/08/06 04:27:46;;;;;;;8.43;7.83;;;20.50;99.90;;;;;;5113297;27;20461;-66
2021/08/06 04:30:15;;;;;;;8.60;7.77;;;20.50;99.90;;;;;;5102457;28;20469;-66
2021/08/06 04:32:45;;;;;;;8.47;7.83;;;20.50;99.90;;;;;;5106469;27;20473;-66
2021/08/06 04:35:13;;;;;;;8.43;7.83;;;20.50;99.90;;;;;;5105846;28;20999;-66
2021/08/06 04:37:47;;;;;;;7.90;7.30;;;20.50;99.90;;;;;;5099422;27;20471;-66
2021/08/06 04:40:15;;;;;;;6.70;6.20;;;20.50;99.90;;;;;;5113350;27;20456;-66
2021/08/06 04:42:42;;;;;;;8.17;7.67;;;20.50;99.90;;;;;;5113042;27;20559;-65
2021/08/06 04:45:10;;;;;;;10.03;9.17;;;20.50;99.90;;;;;;5112717;28;20464;-65
2021/08/06 04:47:37;;;;;;;7.57;6.87;;;20.50;99.90;;;;;;5100844;27;20456;-66
2021/08/06 04:50:04;;;;;;;9.10;8.40;;;20.50;99.90;;;;;;5113495;27;20783;-65
2021/08/06 04:52:32;;;;;;;8.73;8.00;;;20.50;99.90;;;;;;5113521;28;20465;-65
2021/08/06 04:54:59;;;;;;;9.50;8.80;;;20.60;99.90;;;;;;5097830;28;20458;-65
2021/08/06 04:57:26;;;;;;;8.87;7.97;;;20.50;99.90;;;;;;5092385;28;20461;-65
2021/08/06 04:59:53;;;;;;;9.20;8.40;;;20.60;99.90;;;;;;5092025;28;20473;-66
2021/08/06 05:02:20;;;;;;;8.33;7.73;;;20.60;99.90;;;;;;5093028;28;20468;-65
2021/08/06 05:04:49;;;;;;;8.30;7.70;;;20.50;99.90;;;;;;5092401;28;20808;-66
2021/08/06 05:07:18;;;;;;;8.03;7.33;;;20.50;99.90;;;;;;5093319;28;20461;-65
2021/08/06 05:09:46;;;;;;;7.83;7.23;;;20.60;99.90;;;;;;5092381;28;20465;-65
2021/08/06 05:12:14;;;;;;;7.50;6.90;;;20.60;99.90;;;;;;5093087;28;20764;-66
2021/08/06 05:14:41;;;;;;;7.80;7.27;;;20.60;99.90;;;;;;5092717;28;20469;-65
2021/08/06 05:17:09;;;;;;;8.53;7.80;;;20.60;99.90;;;;;;5092921;28;20488;-66
2021/08/06 05:19:36;;;;;;;8.20;7.60;;;20.60;99.90;;;;;;5092608;28;20469;-65
2021/08/06 05:22:03;;;;;;;9.17;8.23;;;20.60;99.90;;;;;;5092580;28;20464;-66
2021/08/06 05:24:30;;;;;;;8.60;7.90;;;20.60;99.90;;;;;;5092678;28;20466;-65
2021/08/06 05:26:58;;;;;;;8.40;7.80;;;20.60;99.90;;;;;;5092590;28;20816;-65
2021/08/06 05:29:25;;;;;;;8.30;7.43;;;20.60;99.90;;;;;;5092826;28;20483;-65
2021/08/06 05:31:52;;;;;;;7.07;6.47;;;20.70;99.90;;;;;;5092369;28;20468;-66
2021/08/06 05:34:19;;;;;;;6.87;6.37;;;20.70;99.90;;;;;;5092730;28;20476;-65
2021/08/06 05:36:46;;;;;;;8.23;7.50;;;20.70;99.90;;;;;;5092395;28;20457;-65
2021/08/06 05:39:13;;;;;;;8.20;7.50;;;20.70;99.90;;;;;;5092622;28;20796;-65
2021/08/06 05:41:40;;;;;;;9.60;8.90;;;20.70;99.90;;;;;;5092288;28;20470;-64
2021/08/06 05:44:08;;;;;;;7.73;7.13;;;20.70;99.90;;;;;;5092543;28;20485;-65
2021/08/06 05:46:35;;;;;;;8.43;7.70;;;20.70;99.90;;;;;;5092502;28;20461;-65
2021/08/06 05:49:02;;;;;;;8.30;7.70;;;20.70;99.90;;;;;;5092092;28;20465;-65
2021/08/06 05:51:29;;;;;;;8.20;7.60;;;20.70;99.90;;;;;;5092779;28;20492;-65
2021/08/06 05:53:56;;;;;;;8.37;7.57;;;20.70;99.90;;;;;;5093698;28;20469;-65
2021/08/06 05:56:25;;;;;;;8.10;7.30;;;20.70;99.90;;;;;;5096617;28;20488;-65
2021/08/06 05:58:52;;;;;;;9.03;8.10;;;20.70;99.90;;;;;;5095898;28;20488;-65
2021/08/06 06:01:20;;;;;;;8.60;7.90;;;20.70;99.90;;;;;;5096654;28;20469;-66
2021/08/06 06:03:47;;;;;;;7.60;7.00;;;20.70;99.90;;;;;;5096175;28;20472;-66
2021/08/06 06:06:14;;;;;;;9.10;8.30;;;20.70;99.90;;;;;;5096490;28;20468;-65
2021/08/06 06:08:41;;;;;;;9.07;8.40;;;20.80;99.90;;;;;;5095803;28;20474;-65
2021/08/06 06:11:08;;;;;;;8.00;7.37;;;20.80;99.90;;;;;;5096599;28;20523;-65
2021/08/06 06:13:36;;;;;;;8.93;8.20;;;20.80;99.90;;;;;;5096126;28;20472;-64
2021/08/06 06:16:03;;;;;;;9.60;8.80;;;20.80;99.90;;;;;;5095777;28;20544;-65
2021/08/06 06:18:32;;;;;;;9.37;8.63;;;20.80;99.90;;;;;;5096127;28;20473;-65
2021/08/06 06:20:59;;;;;;;10.70;9.80;;;20.90;99.90;;;;;;5095771;28;20457;-65
2021/08/06 06:23:26;;;;;;;9.17;8.40;;;20.80;99.90;;;;;;5096345;28;20461;-65
2021/08/06 06:25:52;;;;;;;8.57;7.97;;;20.80;99.90;;;;;;5095882;28;20488;-65
2021/08/06 06:28:19;;;;;;;8.37;7.67;;;20.90;99.90;;;;;;5095925;28;20512;-65
2021/08/06 06:30:46;;;;;;;9.13;8.43;;;20.90;99.90;;;;;;5095635;28;20488;-66
2021/08/06 06:33:13;;;;;;;9.50;8.80;;;20.90;99.90;;;;;;5095737;28;20457;-65
2021/08/06 06:35:42;;;;;;;9.30;8.60;;;21.00;99.90;;;;;;5095895;28;20457;-65
2021/08/06 06:38:09;;;;;;;8.87;8.07;;;21.00;99.90;;;;;;5095579;28;20457;-65
2021/08/06 06:40:36;;;;;;;10.37;9.47;;;21.00;99.90;;;;;;5095748;28;20476;-65
2021/08/06 06:43:03;;;;;;;10.10;9.30;;;21.10;99.90;;;;;;5095167;28;20472;-65
2021/08/06 06:45:30;;;;;;;9.37;8.37;;;21.10;99.90;;;;;;5095648;28;20476;-65
2021/08/06 06:47:57;;;;;;;9.47;8.73;;;21.10;99.90;;;;;;5094988;28;20473;-65
2021/08/06 06:50:25;;;;;;;8.30;7.43;;;21.10;99.90;;;;;;5095498;28;20582;-65
2021/08/06 06:52:54;;;;;;;9.60;8.70;;;21.10;99.90;;;;;;5095115;28;20981;-65
2021/08/06 06:55:22;;;;;;;10.77;9.77;;;21.20;99.90;;;;;;5095554;28;20471;-65
2021/08/06 06:57:51;;;;;;;10.50;8.63;;;21.20;99.90;;;;;;5094803;28;20461;-65
2021/08/06 07:00:19;;;;;;;10.57;9.73;;;21.20;99.90;;;;;;5095342;28;20461;-65
2021/08/06 07:02:46;;;;;;;9.83;9.00;;;21.30;99.90;;;;;;5094658;28;20462;-65
2021/08/06 07:05:14;;;;;;;8.27;7.47;;;21.30;99.90;;;;;;5093960;28;20457;-65
2021/08/06 07:07:41;;;;;;;10.23;9.33;;;21.40;99.90;;;;;;5095076;28;20477;-65
2021/08/06 07:10:11;;;;;;;8.30;7.70;;;21.50;99.90;;;;;;5094549;28;20469;-65
2021/08/06 07:12:39;;;;;;;8.40;7.80;;;21.50;99.90;;;;;;5095032;28;20468;-65
2021/08/06 07:15:08;;;;;;;9.53;8.73;;;21.60;99.90;;;;;;5094731;28;20810;-65
2021/08/06 07:17:37;;;;;;;11.50;10.40;;;21.70;99.90;;;;;;5094737;28;20461;-65
2021/08/06 07:20:05;;;;;;;10.50;9.70;;;21.70;99.90;;;;;;5094596;28;20466;-65
2021/08/06 07:22:32;;;;;;;7.80;7.20;;;21.80;99.90;;;;;;5094926;28;20466;-65
2021/08/06 07:24:59;;;;;;;8.07;7.47;;;21.80;99.90;;;;;;5094516;28;20464;-65
2021/08/06 07:27:28;;;;;;;8.20;7.40;;;21.90;99.90;;;;;;5094797;28;20977;-65
2021/08/06 07:29:55;;;;;;;9.63;6.90;;;22.10;99.90;;;;;;5094340;28;20469;-65
2021/08/06 07:32:22;;;;;;;6.80;6.30;;;22.20;99.90;;;;;;5094836;28;20465;-65
2021/08/06 07:34:49;;;;;;;6.27;5.70;;;22.30;99.90;;;;;;5094156;28;20461;-65
2021/08/06 07:37:16;;;;;;;6.70;6.10;;;22.40;99.50;;;;;;5094517;28;20457;-65
2021/08/06 07:39:43;;;;;;;6.13;5.63;;;22.50;99.30;;;;;;5094480;28;20473;-65
2021/08/06 07:42:10;;;;;;;7.33;6.83;;;22.60;99.00;;;;;;5094120;28;20461;-65
2021/08/06 07:44:38;;;;;;;7.23;6.50;;;22.70;98.60;;;;;;5094651;28;20963;-66
2021/08/06 07:47:05;;;;;;;6.27;5.87;;;22.80;97.80;;;;;;5094032;28;20466;-66
2021/08/06 07:49:32;;;;;;;7.67;6.80;;;22.90;97.30;;;;;;5094357;28;20469;-66
2021/08/06 07:51:59;;;;;;;7.80;7.20;;;23.00;97.20;;;;;;5093939;28;20465;-66
2021/08/06 07:54:26;;;;;;;7.47;6.43;;;23.00;97.10;;;;;;5094265;28;20476;-66
2021/08/06 07:56:53;;;;;;;8.70;7.23;;;23.20;97.10;;;;;;5094087;28;20559;-66
2021/08/06 07:59:21;;;;;;;6.47;5.53;;;23.20;96.80;;;;;;5094009;28;20481;-66
2021/08/06 08:01:50;;;;;;;5.80;5.40;;;23.40;96.70;;;;;;5094247;28;20472;-66
2021/08/06 08:04:17;;;;;;;4.30;4.00;;;23.40;96.50;;;;;;5094077;28;21228;-66
2021/08/06 08:06:45;;;;;;;5.57;5.17;;;23.50;95.10;;;;;;5094107;28;20480;-66
2021/08/06 08:09:12;;;;;;;4.67;4.27;;;23.60;94.00;;;;;;5093603;28;20474;-66
2021/08/06 08:11:39;;;;;;;10.67;5.30;;;23.60;94.10;;;;;;5094068;28;20465;-66
2021/08/06 08:14:06;;;;;;;5.37;4.97;;;23.70;94.10;;;;;;5093396;28;20462;-66
2021/08/06 08:16:33;;;;;;;5.00;4.70;;;23.80;94.00;;;;;;5093654;28;20462;-66
2021/08/06 08:19:01;;;;;;;5.00;4.60;;;23.90;94.00;;;;;;5093579;28;20479;-66
2021/08/06 08:21:28;;;;;;;5.57;5.07;;;24.00;94.10;;;;;;5093808;28;20468;-66
2021/08/06 08:23:55;;;;;;;4.70;4.30;;;24.10;94.50;;;;;;5093228;28;20481;-66
2021/08/06 08:26:22;;;;;;;5.47;5.07;;;24.30;94.20;;;;;;5093876;28;20476;-66
2021/08/06 08:28:49;;;;;;;5.53;5.03;;;24.30;93.70;;;;;;5093566;28;20490;-66
2021/08/06 08:31:17;;;;;;;4.10;3.80;;;24.40;92.70;;;;;;5093172;28;20449;-66
2021/08/06 08:33:44;;;;;;;4.90;4.50;;;24.50;92.40;;;;;;5093712;28;20560;-67
2021/08/06 08:36:13;;;;;;;4.17;3.77;;;24.50;92.30;;;;;;5093197;28;20477;-64
2021/08/06 08:38:40;;;;;;;4.40;4.00;;;24.60;92.20;;;;;;5093568;28;20956;-64
2021/08/06 08:41:08;;;;;;;3.10;2.90;;;24.70;92.10;;;;;;5093188;28;20841;-66
2021/08/06 08:43:35;;;;;;;4.37;3.97;;;24.90;92.10;;;;;;5093217;28;20485;-66
2021/08/06 08:46:02;;;;;;;4.17;3.80;;;24.80;90.60;;;;;;5092974;28;20462;-66
2021/08/06 08:48:30;;;;;;;4.10;3.60;;;24.90;90.70;;;;;;5093211;28;20519;-66
2021/08/06 08:50:59;;;;;;;4.27;3.97;;;24.90;90.00;;;;;;5092826;28;20465;-66
2021/08/06 08:53:27;;;;;;;5.60;3.90;;;25.00;90.00;;;;;;5093295;28;20472;-66
2021/08/06 08:55:54;;;;;;;9.00;3.97;;;25.00;89.80;;;;;;5093332;28;20461;-66
2021/08/06 08:58:21;;;;;;;5.33;4.93;;;25.00;90.00;;;;;;5092948;28;21801;-65
2021/08/06 09:00:48;;;;;;;4.60;4.00;;;25.00;89.80;;;;;;5093140;28;20465;-66
2021/08/06 09:03:41;;;;;;;4.03;3.73;;;25.00;88.90;;;;;;5092764;28;20476;-66
2021/08/06 09:06:09;;;;;;;3.87;3.00;;;25.00;88.10;;;;;;5092867;28;20469;-66
2021/08/06 09:08:39;;;;;;;5.43;5.03;;;25.00;88.90;;;;;;5092977;28;20506;-66
2021/08/06 09:11:26;;;;;;;5.47;4.90;;;25.00;87.80;;;;;;5092749;28;20476;-66
2021/08/06 09:13:53;;;;;;;8.63;4.87;;;25.00;87.50;;;;;;5092864;28;20462;-66
2021/08/06 09:16:21;;;;;;;4.63;4.23;;;25.00;87.80;;;;;;5092678;28;20466;-65
2021/08/06 09:18:48;;;;;;;4.50;3.70;;;25.00;88.50;;;;;;5092902;28;20470;-65
2021/08/06 09:21:24;;;;;;;2.93;2.77;;;24.90;86.00;;;;;;5092475;28;20514;-64
2021/08/06 09:23:55;;;;;;;5.63;5.00;;;25.00;86.60;;;;;;5092830;28;20469;-67
2021/08/06 09:26:40;;;;;;;6.10;3.97;;;25.00;85.80;;;;;;5092622;28;20526;-65
2021/08/06 09:29:10;;;;;;;8.53;4.30;;;24.90;85.60;;;;;;5091417;28;20512;-65
2021/08/06 09:31:39;;;;;;;5.63;4.20;;;24.90;85.40;;;;;;5092697;28;20462;-66
2021/08/06 09:34:19;;;;;;;4.30;3.67;;;24.90;85.30;;;;;;5092469;28;20552;-65
2021/08/06 09:36:58;;;;;;;3.93;3.73;;;24.90;85.30;;;;;;5092600;28;20472;-65
2021/08/06 09:39:31;;;;;;;3.43;3.13;;;25.00;86.90;;;;;;5092559;28;20461;-65
2021/08/06 09:41:58;;;;;;;3.27;3.03;;;25.00;85.30;;;;;;5092389;28;20457;-65
2021/08/06 09:44:28;;;;;;;3.00;2.80;;;25.10;85.40;;;;;;5091939;28;20457;-66
2021/08/06 09:46:56;;;;;;;3.10;2.70;;;25.20;81.70;;;;;;5092874;28;20484;-66
2021/08/06 09:49:23;;;;;;;4.17;3.87;;;25.20;82.00;;;;;;5092072;28;20492;-66
2021/08/06 09:51:52;;;;;;;3.67;3.33;;;25.20;83.60;;;;;;5092487;28;20472;-65
2021/08/06 09:54:21;;;;;;;3.10;2.90;;;25.30;79.50;;;;;;5092401;28;20469;-67
2021/08/06 09:57:04;;;;;;;5.03;2.80;;;25.30;78.60;;;;;;5092588;28;20466;-65
2021/08/06 09:59:33;;;;;;;2.60;2.30;;;25.40;78.70;;;;;;5092029;28;20531;-65
2021/08/06 10:02:12;;;;;;;3.63;3.33;;;25.40;77.90;;;;;;5092382;28;20807;-64
2021/08/06 10:04:39;;;;;;;2.70;2.50;;;25.40;77.50;;;;;;5092310;28;20867;-67
2021/08/06 10:07:07;;;;;;;3.10;2.90;;;25.40;75.80;;;;;;5092386;28;20465;-65
2021/08/06 10:09:34;;;;;;;3.77;2.83;;;25.40;77.30;;;;;;5091963;28;21465;-65
2021/08/06 10:12:03;;;;;;;4.47;2.87;;;25.40;77.40;;;;;;5092536;28;20461;-66
2021/08/06 10:14:30;;;;;;;2.73;2.50;;;25.40;77.60;;;;;;5091911;28;20472;-66
2021/08/06 10:16:57;;;;;;;3.30;3.00;;;25.50;75.20;;;;;;5092376;28;20473;-66
2021/08/06 10:19:24;;;;;;;2.60;2.47;;;25.50;76.00;;;;;;5091901;28;20514;-65
2021/08/06 10:21:51;;;;;;;2.80;2.60;;;25.60;74.00;;;;;;5092270;28;20458;-65
2021/08/06 10:24:18;;;;;;;3.20;2.90;;;25.60;74.40;;;;;;5091717;28;20468;-66
2021/08/06 10:26:47;;;;;;;3.33;2.70;;;25.60;73.10;;;;;;5092440;28;20476;-65
2021/08/06 10:29:21;;;;;;;2.60;2.40;;;25.60;72.80;;;;;;5091992;28;20476;-65
2021/08/06 10:32:10;;;;;;;2.87;2.67;;;25.60;73.40;;;;;;5091998;28;20449;-65
2021/08/06 10:35:14;;;;;;;2.83;2.60;;;25.70;74.70;;;;;;5091817;28;20503;-65
2021/08/06 10:38:07;;;;;;;3.27;2.97;;;25.70;76.50;;;;;;5087145;28;20457;-65
2021/08/06 10:41:13;;;;;;;3.27;3.07;;;25.70;72.60;;;;;;5094168;28;20493;-66
2021/08/06 10:43:52;;;;;;;3.07;2.40;;;25.60;72.10;;;;;;5095339;28;20518;-66
2021/08/06 10:46:21;;;;;;;4.03;2.80;;;25.50;71.40;;;;;;5095608;28;20465;-66
2021/08/06 10:48:50;;;;;;;3.20;2.67;;;25.50;72.20;;;;;;5095081;28;20472;-66
2021/08/06 10:51:28;;;;;;;3.20;3.00;;;25.50;72.40;;;;;;5095652;28;20461;-66
2021/08/06 10:54:24;;;;;;;4.50;3.50;;;25.60;73.70;;;;;;5095331;28;20476;-66
2021/08/06 10:57:19;;;;;;;2.70;2.50;;;25.60;73.90;;;;;;5095107;28;20783;-65
2021/08/06 10:59:47;;;;;;;5.10;2.70;;;25.70;72.20;;;;;;5094999;28;20487;-65
2021/08/06 11:02:38;;;;;;;3.50;3.10;;;25.70;72.90;;;;;;5095410;28;20529;-65
2021/08/06 11:05:42;;;;;;;5.23;4.73;;;25.80;74.80;;;;;;5095007;28;20450;-65
2021/08/06 11:08:55;;;;;;;3.73;3.27;;;25.80;71.90;;;;;;5094934;28;21178;-65
2021/08/06 11:11:48;;;;;;;6.23;3.60;;;25.80;71.50;;;;;;5095820;28;20531;-65
2021/08/06 11:14:17;;;;;;;3.13;2.83;;;25.80;71.30;;;;;;5094937;28;20474;-65
2021/08/06 11:17:02;;;;;;;2.77;2.57;;;25.70;71.30;;;;;;5095136;28;20472;-66
2021/08/06 11:19:33;;;;;;;3.30;3.10;;;25.80;71.20;;;;;;5094803;28;20810;-65
2021/08/06 11:22:01;;;;;;;4.00;3.70;;;25.80;76.90;;;;;;5095145;28;20462;-65
2021/08/06 11:24:35;;;;;;;3.50;3.20;;;25.70;80.00;;;;;;5096633;27;20464;-65
2021/08/06 11:27:03;;;;;;;3.23;2.40;;;25.70;73.70;;;;;;5135928;27;20492;-65
2021/08/06 11:29:30;;;;;;;3.53;2.80;;;25.80;71.20;;;;;;5135345;27;20778;-66
2021/08/06 11:32:05;;;;;;;3.97;3.00;;;25.80;72.70;;;;;;5135752;27;20468;-67
2021/08/06 11:34:52;;;;;;;3.50;3.30;;;25.80;70.30;;;;;;5135360;27;20470;-66
2021/08/06 11:37:20;;;;;;;3.00;2.80;;;25.90;69.60;;;;;;5135211;27;20456;-66
2021/08/06 11:40:09;;;;;;;3.23;2.93;;;26.00;69.80;;;;;;5135642;27;20459;-66
2021/08/06 11:42:37;;;;;;;4.47;4.17;;;26.00;70.60;;;;;;5135230;27;20555;-66
2021/08/06 11:45:06;;;;;;;4.90;4.40;;;25.80;73.90;;;;;;5111978;27;20477;-66
2021/08/06 11:47:41;;;;;;;4.03;3.73;;;25.70;74.20;;;;;;5114031;27;20453;-66
2021/08/06 11:50:12;;;;;;;4.70;3.47;;;25.70;73.70;;;;;;5114888;27;20456;-67
2021/08/06 11:52:41;;;;;;;3.43;3.13;;;25.70;71.40;;;;;;5113627;28;20460;-67
2021/08/06 11:55:10;;;;;;;3.07;2.77;;;25.70;71.20;;;;;;5114206;27;20460;-67
2021/08/06 11:57:44;;;;;;;2.60;2.50;;;25.70;70.80;;;;;;5114215;27;20463;-67
2021/08/06 12:00:19;;;;;;;3.70;3.40;;;25.70;71.60;;;;;;5114563;27;20464;-67
2021/08/06 12:02:46;;;;;;;3.00;2.80;;;25.70;71.40;;;;;;5114325;27;20841;-67
2021/08/06 12:05:26;;;;;;;2.67;2.47;;;25.70;71.30;;;;;;5114355;27;20805;-67
2021/08/06 12:07:53;;;;;;;4.90;2.80;;;25.70;71.20;;;;;;5114103;27;20795;-67
2021/08/06 12:10:25;;;;;;;3.10;2.90;;;25.70;71.50;;;;;;5114479;27;20464;-67
2021/08/06 12:12:52;;;;;;;3.50;3.20;;;25.60;71.00;;;;;;5113831;27;20456;-67
2021/08/06 12:15:21;;;;;;;3.07;2.87;;;25.70;72.60;;;;;;5114104;27;20475;-67
2021/08/06 12:17:49;;;;;;;7.30;6.63;;;25.70;72.50;;;;;;5113827;27;20807;-67
2021/08/06 12:20:39;;;;;;;3.37;3.07;;;25.70;73.30;;;;;;5112582;27;20453;-68
2021/08/06 12:23:07;;;;;;;3.13;2.93;;;25.70;71.10;;;;;;5113981;28;20461;-67
2021/08/06 12:25:34;;;;;;;3.53;3.23;;;25.80;70.30;;;;;;5113288;27;20471;-67
2021/08/06 12:28:02;;;;;;;2.70;2.50;;;25.90;70.60;;;;;;5113877;28;20495;-67
2021/08/06 12:30:31;;;;;;;3.20;3.00;;;25.90;70.40;;;;;;5108345;28;20464;-67
2021/08/06 12:32:58;;;;;;;4.00;3.23;;;25.90;70.70;;;;;;5105577;28;20485;-67
2021/08/06 12:35:27;;;;;;;5.43;4.40;;;26.00;71.10;;;;;;5099486;27;20460;-67
2021/08/06 12:37:55;;;;;;;3.37;3.07;;;26.00;71.90;;;;;;5113682;27;20484;-67
2021/08/06 12:40:23;;;;;;;3.67;2.83;;;26.00;70.80;;;;;;5107297;28;20500;-67
2021/08/06 12:42:50;;;;;;;4.83;3.00;;;26.00;70.50;;;;;;5106526;28;20516;-67
2021/08/06 12:45:20;;;;;;;4.00;2.60;;;26.00;69.20;;;;;;5099104;28;20468;-67
2021/08/06 12:47:49;;;;;;;4.97;3.23;;;26.10;69.00;;;;;;5113341;28;20800;-68
2021/08/06 12:50:24;;;;;;;3.53;3.23;;;26.10;68.20;;;;;;5100349;28;20479;-68
2021/08/06 12:53:02;;;;;;;2.90;2.60;;;26.20;67.90;;;;;;5103068;28;20533;-68
2021/08/06 12:55:31;;;;;;;3.37;3.07;;;26.30;68.50;;;;;;5113120;28;20957;-68
2021/08/06 12:57:59;;;;;;;3.10;2.90;;;26.40;68.30;;;;;;5099597;28;20481;-67